Terminal Aerodrome Forecast
Issued by NWS Pocatello, ID

Home | Current Version | Previous Version | Text Only | Print | Product List | Glossary On
Versions: 1 2 3 4 5 6 7 8 9 10 11 12
000
FTUS45 KPIH 271720
TAFIDA
TAF
KIDA 271720Z 2718/2818 VRB06KT P6SM BKN110
     FM272000 25014G23KT P6SM VCTS BKN090CB
     FM280300 33010KT P6SM SCT200=

USA.gov is the U.S. government's official web portal to all federal, state and local government web resources and services.